createdAt,value
2022-09-26T05:46:38.698Z,55.37
2022-09-26T05:49:06.711Z,55.42
2022-09-26T05:51:33.544Z,55.24
2022-09-26T05:54:00.138Z,55.25
2022-09-26T05:56:26.671Z,55.40
2022-09-26T05:58:55.030Z,54.84
2022-09-26T06:01:21.646Z,55.17
2022-09-26T06:03:48.127Z,54.07
2022-09-26T06:06:16.787Z,54.84
2022-09-26T06:08:43.712Z,55.11
2022-09-26T06:11:13.951Z,54.68
2022-09-26T06:13:44.143Z,54.67
2022-09-26T06:16:13.198Z,54.86
2022-09-26T06:18:39.934Z,54.95
2022-09-26T06:21:07.698Z,53.66
2022-09-26T06:23:34.547Z,55.02
2022-09-26T06:26:02.267Z,55.07
2022-09-26T06:28:30.480Z,54.90
2022-09-26T06:30:57.605Z,55.53
2022-09-26T06:33:24.286Z,55.58
2022-09-26T06:36:04.040Z,54.29
2022-09-26T06:38:30.843Z,55.56
2022-09-26T06:40:57.365Z,55.55
2022-09-26T06:43:24.203Z,55.63
2022-09-26T06:45:50.956Z,55.43
2022-09-26T06:48:21.105Z,55.59
2022-09-26T06:50:57.169Z,55.53
2022-09-26T06:53:23.662Z,55.56
2022-09-26T06:55:50.170Z,55.36
2022-09-26T06:58:16.835Z,55.34
2022-09-26T07:00:43.964Z,54.04
2022-09-26T07:03:11.997Z,55.47
2022-09-26T07:05:38.460Z,55.86
2022-09-26T07:08:04.937Z,55.42
2022-09-26T07:10:34.465Z,55.61
2022-09-26T07:13:04.051Z,55.34
2022-09-26T07:15:33.210Z,55.43
2022-09-26T07:18:06.405Z,55.17
2022-09-26T07:20:36.672Z,55.52
2022-09-26T07:23:04.892Z,55.53
2022-09-26T07:25:33.366Z,55.77
2022-09-26T07:28:01.150Z,55.62
2022-09-26T07:30:28.428Z,55.73
2022-09-26T07:33:00.537Z,55.45
2022-09-26T07:35:27.363Z,55.63
2022-09-26T07:37:53.824Z,55.23
2022-09-26T07:40:21.198Z,55.50
2022-09-26T07:43:09.353Z,55.50
2022-09-26T07:45:52.907Z,55.38
2022-09-26T07:48:37.701Z,55.18
2022-09-26T07:51:08.989Z,54.73
2022-09-26T07:53:36.707Z,55.07
2022-09-26T07:56:05.829Z,54.91
2022-09-26T07:58:33.797Z,54.82
2022-09-26T08:01:00.246Z,54.67
2022-09-26T08:03:28.750Z,54.27
2022-09-26T08:05:58.534Z,54.38
2022-09-26T08:08:24.960Z,53.90
2022-09-26T08:10:51.467Z,54.48
2022-09-26T08:13:17.960Z,54.00
2022-09-26T08:15:44.431Z,53.72
2022-09-26T08:18:10.911Z,53.65
2022-09-26T08:20:37.863Z,53.51
2022-09-26T08:23:04.262Z,53.38
2022-09-26T08:25:30.706Z,53.45
2022-09-26T08:27:59.570Z,53.07
2022-09-26T08:30:27.692Z,52.96
2022-09-26T08:32:55.187Z,53.08
2022-09-26T08:35:21.625Z,52.82
2022-09-26T08:37:48.146Z,52.63
2022-09-26T08:40:15.024Z,52.71
2022-09-26T08:43:18.367Z,52.44
2022-09-26T08:46:10.449Z,52.92
2022-09-26T08:49:20.570Z,53.06
2022-09-26T08:51:50.478Z,52.38
2022-09-26T08:54:20.836Z,51.45
2022-09-26T08:56:52.528Z,51.50
2022-09-26T08:59:40.575Z,51.70
2022-09-26T09:02:38.009Z,51.39
2022-09-26T09:05:17.626Z,50.78
2022-09-26T09:07:49.043Z,50.10
2022-09-26T09:10:19.124Z,49.64
2022-09-26T09:13:07.071Z,50.28
2022-09-26T09:15:43.867Z,50.11
2022-09-26T09:18:20.203Z,49.95
2022-09-26T09:20:56.526Z,50.32
2022-09-26T09:23:57.531Z,50.55
2022-09-26T09:30:03.437Z,49.57
2022-09-26T09:32:44.795Z,50.45
2022-09-26T09:38:26.546Z,49.64
2022-09-26T09:41:01.900Z,48.97
2022-09-26T09:43:48.697Z,49.54
2022-09-26T09:46:34.894Z,49.02
2022-09-26T09:49:10.204Z,49.01
2022-09-26T09:51:51.455Z,48.78
2022-09-26T09:54:39.271Z,48.07
2022-09-26T09:57:24.595Z,47.10
2022-09-26T09:59:57.185Z,47.96
2022-09-26T10:02:23.680Z,48.14
2022-09-26T10:04:57.784Z,49.05
2022-09-26T10:07:24.309Z,47.02
2022-09-26T10:09:51.851Z,48.65
2022-09-26T10:12:21.091Z,47.21
2022-09-26T10:14:56.369Z,46.97
2022-09-26T10:17:24.274Z,46.21
2022-09-26T10:19:53.777Z,45.71
2022-09-26T10:22:29.385Z,46.61
2022-09-26T10:25:06.765Z,47.00
2022-09-26T10:27:38.065Z,46.37
2022-09-26T10:30:21.448Z,45.53
2022-09-26T10:32:56.650Z,45.51
2022-09-26T10:35:26.689Z,45.99
2022-09-26T10:38:05.638Z,46.05
2022-09-26T10:40:48.341Z,45.78
2022-09-26T10:43:22.839Z,46.33
2022-09-26T10:45:56.549Z,46.33
2022-09-26T10:48:34.304Z,45.82
2022-09-26T10:51:01.937Z,45.45
2022-09-26T10:53:36.238Z,45.38
2022-09-26T10:56:14.043Z,46.21
2022-09-26T10:58:45.555Z,45.36
2022-09-26T11:01:22.842Z,45.26
2022-09-26T11:03:50.237Z,44.95
2022-09-26T11:06:26.753Z,45.50
2022-09-26T11:08:58.432Z,45.74
2022-09-26T11:11:25.180Z,44.83
2022-09-26T11:14:07.361Z,45.57
2022-09-26T11:16:54.707Z,46.18
2022-09-26T11:19:31.312Z,45.36
2022-09-26T11:22:05.881Z,44.56
2022-09-26T11:24:46.230Z,44.87
2022-09-26T11:27:34.241Z,45.41
2022-09-26T11:30:21.993Z,45.88
2022-09-26T11:32:55.301Z,44.87
2022-09-26T11:35:43.474Z,45.35
2022-09-26T11:38:47.939Z,45.70
2022-09-26T11:41:36.564Z,44.58
2022-09-26T11:44:40.184Z,46.13
2022-09-26T11:47:30.842Z,44.56
2022-09-26T11:50:03.317Z,43.66
2022-09-26T11:52:35.673Z,44.42
2022-09-26T11:55:18.553Z,45.46
2022-09-26T11:58:03.654Z,44.70
2022-09-26T12:00:44.135Z,44.11
2022-09-26T12:03:30.467Z,44.95
2022-09-26T12:06:20.334Z,44.04
2022-09-26T12:09:13.759Z,44.03
2022-09-26T12:12:09.576Z,44.12
2022-09-26T12:14:52.542Z,44.26
2022-09-26T12:17:52.549Z,44.09
2022-09-26T12:20:35.116Z,43.12
2022-09-26T12:23:12.757Z,43.11
2022-09-26T12:26:28.724Z,44.24
2022-09-26T12:29:03.852Z,43.23
2022-09-26T12:32:07.733Z,44.02
2022-09-26T12:34:37.789Z,43.41
2022-09-26T12:37:19.376Z,43.64
2022-09-26T12:39:58.500Z,43.13
2022-09-26T12:42:47.801Z,44.29
2022-09-26T12:45:38.948Z,44.00
2022-09-26T12:48:29.745Z,43.32
2022-09-26T12:51:37.892Z,43.77
2022-09-26T12:54:33.086Z,44.49
2022-09-26T12:57:18.888Z,44.13
2022-09-26T13:00:09.685Z,44.64
2022-09-26T13:03:07.941Z,44.59
2022-09-26T13:05:54.113Z,44.51
2022-09-26T13:08:58.552Z,44.46
2022-09-26T13:11:41.614Z,44.22
2022-09-26T13:14:14.823Z,44.41
2022-09-26T13:17:05.926Z,45.03
2022-09-26T13:19:38.147Z,44.33
2022-09-26T13:22:42.485Z,45.17
2022-09-26T13:25:15.015Z,44.54
2022-09-26T13:27:48.405Z,44.14
2022-09-26T13:30:26.325Z,45.05
2022-09-26T13:33:20.350Z,45.24
2022-09-26T13:35:51.192Z,46.00
2022-09-26T13:38:49.007Z,46.22
2022-09-26T13:41:37.826Z,46.05
2022-09-26T13:44:29.524Z,45.94
2022-09-26T13:47:19.736Z,46.74
2022-09-26T13:50:22.571Z,46.34
2022-09-26T13:53:21.268Z,46.12
2022-09-26T13:56:29.689Z,46.35
2022-09-26T13:59:12.349Z,45.90
2022-09-26T14:01:59.823Z,45.80
2022-09-26T14:04:34.097Z,45.74
2022-09-26T14:07:29.810Z,46.20
2022-09-26T14:10:08.270Z,46.34
2022-09-26T14:13:08.467Z,46.13
2022-09-26T14:15:47.282Z,46.23
2022-09-26T14:18:22.191Z,46.22
2022-09-26T14:21:09.826Z,46.12
2022-09-26T14:23:46.796Z,46.09
2022-09-26T14:26:43.886Z,46.18
2022-09-26T14:29:29.338Z,46.90
2022-09-26T14:32:01.289Z,46.48
2022-09-26T14:34:32.700Z,46.40
2022-09-26T14:37:03.953Z,46.25
2022-09-26T14:39:43.575Z,46.53
2022-09-26T14:42:17.761Z,46.83
2022-09-26T14:44:56.934Z,46.56
2022-09-26T14:47:25.444Z,46.52
2022-09-26T14:50:03.606Z,46.41
2022-09-26T14:52:30.731Z,46.87
2022-09-26T14:55:01.341Z,46.34
2022-09-26T14:57:33.078Z,46.42
2022-09-26T15:00:01.228Z,46.13
2022-09-26T15:02:40.362Z,46.58
2022-09-26T15:05:09.891Z,46.41
2022-09-26T15:07:42.915Z,46.74
2022-09-26T15:10:12.102Z,46.53
2022-09-26T15:12:47.784Z,46.60
2022-09-26T15:15:52.719Z,46.92
2022-09-26T15:18:32.093Z,46.44
2022-09-26T15:21:05.565Z,46.23
2022-09-26T15:23:44.394Z,46.45
2022-09-26T15:26:11.410Z,46.32
2022-09-26T15:28:38.650Z,46.55
2022-09-26T15:31:20.547Z,46.22
2022-09-26T15:33:49.770Z,46.12
2022-09-26T15:36:16.999Z,45.81
2022-09-26T15:38:47.207Z,46.06
2022-09-26T15:41:38.994Z,45.96
2022-09-26T15:44:07.736Z,45.24
2022-09-26T15:46:34.239Z,45.05
2022-09-26T15:49:00.711Z,45.67
2022-09-26T15:51:38.180Z,45.74
2022-09-26T15:54:20.249Z,45.49
2022-09-26T15:56:51.144Z,45.45
2022-09-26T15:59:23.271Z,45.52
2022-09-26T16:01:50.202Z,45.43
2022-09-26T16:04:21.744Z,45.55
2022-09-26T16:06:56.307Z,45.87
2022-09-26T16:09:40.506Z,45.82
2022-09-26T16:12:19.287Z,45.69
2022-09-26T16:14:58.826Z,45.63
2022-09-26T16:17:50.335Z,45.86
2022-09-26T16:20:16.747Z,45.42
2022-09-26T16:22:51.211Z,45.47
2022-09-26T16:25:17.982Z,45.36
2022-09-26T16:27:46.954Z,45.17
2022-09-26T16:30:28.577Z,45.48
2022-09-26T16:33:12.458Z,45.35
2022-09-26T16:35:47.829Z,45.53
2022-09-26T16:38:20.475Z,45.16
2022-09-26T16:40:55.085Z,45.31
2022-09-26T16:43:27.352Z,45.92
2022-09-26T16:46:02.674Z,45.58
2022-09-26T16:48:59.594Z,45.44
2022-09-26T16:51:36.312Z,45.12
2022-09-26T16:54:08.150Z,45.19
2022-09-26T16:56:39.386Z,45.27
2022-09-26T16:59:18.148Z,45.71
2022-09-26T17:01:53.930Z,45.28
2022-09-26T17:04:25.117Z,45.49
2022-09-26T17:06:52.007Z,45.72
2022-09-26T17:09:21.308Z,45.53
2022-09-26T17:11:50.960Z,45.35
2022-09-26T17:14:22.355Z,45.54
2022-09-26T17:16:55.056Z,45.65
2022-09-26T17:19:23.923Z,45.94
2022-09-26T17:21:51.223Z,45.72
2022-09-26T17:24:29.334Z,46.16
2022-09-26T17:27:04.748Z,46.29
2022-09-26T17:29:39.687Z,46.68
2022-09-26T17:32:31.618Z,46.87
2022-09-26T17:35:01.050Z,46.42
2022-09-26T17:37:28.686Z,46.85
2022-09-26T17:39:57.824Z,46.71
2022-09-26T17:42:25.370Z,47.17
2022-09-26T17:44:52.054Z,47.09
2022-09-26T17:47:19.271Z,46.84
2022-09-26T17:49:56.086Z,47.16
2022-09-26T17:52:32.206Z,47.28
2022-09-26T17:55:04.403Z,47.44
2022-09-26T17:57:38.292Z,47.21
2022-09-26T18:00:15.959Z,47.21
2022-09-26T18:02:46.188Z,47.10
2022-09-26T18:05:30.039Z,47.44
2022-09-26T18:08:01.628Z,47.67
2022-09-26T18:10:33.220Z,47.23
2022-09-26T18:13:03.325Z,47.65
2022-09-26T18:15:30.131Z,47.42
2022-09-26T18:17:57.050Z,47.82
2022-09-26T18:20:45.625Z,47.55
2022-09-26T18:23:26.848Z,47.54
2022-09-26T18:25:56.694Z,47.67
2022-09-26T18:28:23.804Z,47.90
2022-09-26T18:30:57.781Z,47.88
2022-09-26T18:33:27.886Z,47.96
2022-09-26T18:35:55.194Z,47.63
2022-09-26T18:38:22.357Z,48.35
2022-09-26T18:40:54.903Z,47.92
2022-09-26T18:43:38.976Z,47.88
2022-09-26T18:46:08.361Z,48.29
2022-09-26T18:48:37.264Z,48.27
2022-09-26T18:51:03.984Z,47.93
2022-09-26T18:53:37.103Z,48.26
2022-09-26T18:56:25.627Z,48.10
2022-09-26T18:58:52.447Z,48.00
2022-09-26T19:01:21.892Z,48.01
2022-09-26T19:03:48.739Z,48.29
2022-09-26T19:06:28.514Z,48.15
2022-09-26T19:09:02.135Z,48.19
2022-09-26T19:11:31.905Z,48.75
2022-09-26T19:14:02.585Z,48.16
2022-09-26T19:16:29.215Z,48.30
2022-09-26T19:18:55.716Z,47.49
2022-09-26T19:21:38.248Z,48.63
2022-09-26T19:24:20.928Z,48.62
2022-09-26T19:27:09.865Z,48.57
2022-09-26T19:29:44.802Z,48.76
2022-09-26T19:32:32.206Z,48.80
2022-09-26T19:35:07.169Z,49.05
2022-09-26T19:37:33.799Z,49.36
2022-09-26T19:40:00.708Z,47.97
2022-09-26T19:42:27.561Z,49.17
2022-09-26T19:44:56.389Z,49.25
2022-09-26T19:47:26.902Z,49.79
2022-09-26T19:49:53.529Z,49.91
2022-09-26T19:52:20.869Z,48.28
2022-09-26T19:54:49.765Z,49.87
2022-09-26T19:57:22.258Z,49.95
2022-09-26T19:59:49.876Z,50.26
2022-09-26T20:02:19.316Z,50.58
2022-09-26T20:04:46.243Z,50.47
2022-09-26T20:07:18.136Z,50.45
2022-09-26T20:09:45.237Z,50.85
2022-09-26T20:12:12.388Z,50.77
2022-09-26T20:14:38.866Z,51.12
2022-09-26T20:17:15.002Z,51.26
2022-09-26T20:19:45.928Z,51.33
2022-09-26T20:22:19.290Z,51.19
2022-09-26T20:24:48.293Z,51.74
2022-09-26T20:27:20.797Z,51.15
2022-09-26T20:30:07.469Z,51.25
2022-09-26T20:32:34.976Z,51.16
2022-09-26T20:35:01.933Z,51.28
2022-09-26T20:37:32.463Z,51.02
2022-09-26T20:40:00.993Z,51.07
2022-09-26T20:42:33.062Z,50.94
2022-09-26T20:44:59.561Z,50.74
2022-09-26T20:47:26.894Z,51.01
2022-09-26T20:50:02.089Z,50.95
2022-09-26T20:52:30.302Z,51.04
2022-09-26T20:54:57.741Z,51.14
2022-09-26T20:57:24.714Z,50.88
2022-09-26T20:59:51.662Z,50.90
2022-09-26T21:02:35.400Z,50.19
2022-09-26T21:05:03.453Z,51.32
2022-09-26T21:07:33.229Z,50.98
2022-09-26T21:09:59.757Z,51.29
2022-09-26T21:12:26.241Z,51.35
2022-09-26T21:14:52.809Z,51.63
2022-09-26T21:17:23.413Z,51.60
2022-09-26T21:19:51.421Z,51.65
2022-09-26T21:22:23.781Z,51.40
2022-09-26T21:24:50.389Z,51.56
2022-09-26T21:27:16.917Z,50.07
2022-09-26T21:29:43.639Z,51.66
2022-09-26T21:32:17.084Z,51.57
2022-09-26T21:34:54.911Z,51.73
2022-09-26T21:37:21.588Z,52.02
2022-09-26T21:39:47.991Z,50.54
2022-09-26T21:42:14.585Z,52.36
2022-09-26T21:44:42.736Z,50.40
2022-09-26T21:47:10.284Z,52.40
2022-09-26T21:49:36.799Z,52.49
2022-09-26T21:52:11.960Z,52.39
2022-09-26T21:54:44.367Z,52.57
2022-09-26T21:57:16.393Z,52.68
2022-09-26T21:59:44.412Z,53.07
2022-09-26T22:02:11.061Z,53.09
2022-09-26T22:04:37.599Z,51.50
2022-09-26T22:07:04.104Z,53.71
2022-09-26T22:09:30.757Z,53.77
2022-09-26T22:11:57.184Z,51.48
2022-09-26T22:14:23.810Z,54.08
2022-09-26T22:16:50.458Z,51.33
2022-09-26T22:19:17.469Z,54.19
2022-09-26T22:21:44.050Z,54.88
2022-09-26T22:24:11.837Z,51.78
2022-09-26T22:26:38.561Z,54.80
2022-09-26T22:29:05.308Z,55.16
2022-09-26T22:31:31.976Z,54.84
2022-09-26T22:33:59.024Z,51.96
2022-09-26T22:36:26.599Z,55.04
2022-09-26T22:38:54.821Z,55.59
2022-09-26T22:41:21.666Z,55.86
2022-09-26T22:43:49.478Z,56.11
2022-09-26T22:46:16.492Z,56.10
2022-09-26T22:48:46.876Z,55.79
2022-09-26T22:51:14.735Z,56.07
2022-09-26T22:53:42.707Z,56.02
2022-09-26T22:56:16.869Z,56.37
2022-09-26T22:58:49.831Z,56.15
2022-09-26T23:01:24.356Z,55.84
2022-09-26T23:03:54.322Z,57.00
